Flugplatz Hoya (UL)

Hier findest Du alle Informationen zum Flugplatz Hoya (UL).

Informationen für Piloten zum Flugplatz Hoya

Hier findest Du alle relevanten Informationen, die Du als Pilot benötigst, um Hoya anzufliegen.

Flugplatz: Hoya ICAO-Code: UL Flugplatz
Frequenz Turm: 120,7083 Mhz GAFOR Gebiet: -
Frequenz Ground: 120,7083 Mhz Mogas: nein
Platzrunde: N 0 ft Landegebühr: -
Platzhöhe: - Sunrise: 04:01 Uhr UTC
Pisten: 12/30 - 1000 m x 25 m, GRAS Sunset: 18:54 Uhr UTC

Mitglieder, die in Hoya fliegen

Flugwetter am Flugplatz Hoya

Die METAR Information stammen aus EDDW (36.32 km entfernt).

METAR Code:
2022/08/03 09:50
EDDW 030950Z AUTO 24013KT CAVOK 27/16 Q1014 NOSIG

Flugschulen am Flugplatz Hoya

Am Flugplatz Hoya gibt es leider keine Flugschule.

Benachbarte Flugplätze und Flugschulen

Es gibt 8 weitere Flugplätze in einem Umkreis von 50 km um den Flugplatz Hoya.

Jetzt anmelden

Passwort vergessen

Umfrage Archiv

Sendet Ihr ADS-B und/oder FLARM?

Ja
83.4 %
Nein
16.6 %
Stimmen: 199 | Diskussion
Anzeige: Roland Aircraft
Statistik Alle Mitglieder

Aktuell sind 78 Besucher online, davon 4 Mitglieder und 74 Gäste.


Mitglieder online:
Willi  wolfgang w  Trial  lucabert 

Anzeige: ULPower Aero Engines Anzeige: Pocket FMS